Time;durP1;ratioP1;P1;durP2;ratioP2;P2;SDS_P1;SDS_P2;PMS_P1;PMS_P2;Temp;Humidity;BMP_temperature;BMP_pressure;BME280_temperature;BME280_humidity;BME280_pressure;Samples;Min_cycle;Max_cycle;Signal;HPM_P1;HPM_P2
2022/09/08 00:00:51;;;;;;;;;;;;;;;17.60;100.00;98009.34;1675529;84;20359;-87
2022/09/08 00:03:18;;;;;;;;;;;;;;;17.65;100.00;98008.35;1690435;83;24754;-87
2022/09/08 00:05:46;;;;;;;;;;;;;;;17.58;100.00;98003.67;1674804;84;22793;-87
2022/09/08 00:08:12;;;;;;;;;;;;;;;17.51;100.00;97996.56;1688328;84;26083;-87
2022/09/08 00:10:38;;;;;;;;;;;;;;;17.51;100.00;97991.27;1666492;83;24497;-87
2022/09/08 00:13:07;;;;;;;;;;;;;;;17.53;100.00;97992.75;1657381;85;20330;-87
2022/09/08 00:15:36;;;;;;;;;;;;;;;17.49;100.00;97989.27;1658556;85;25538;-87
2022/09/08 00:18:02;;;;;;;;;;;;;;;17.44;100.00;97995.05;1661177;85;22107;-87
2022/09/08 00:20:28;;;;;;;;;;;;;;;17.40;100.00;97994.20;1653169;85;26033;-87
2022/09/08 00:22:55;;;;;;;;;;;;;;;17.32;100.00;97996.32;1658848;85;25317;-87
2022/09/08 00:25:21;;;;;;;;;;;;;;;17.28;100.00;97991.52;1670878;85;20294;-87
2022/09/08 00:27:49;;;;;;;;;;;;;;;17.21;100.00;97988.67;1662972;85;20884;-87
2022/09/08 00:30:16;;;;;;;;;;;;;;;17.11;100.00;97980.87;1659039;85;22083;-87
2022/09/08 00:32:42;;;;;;;;;;;;;;;17.02;100.00;97979.16;1664808;85;25968;-86
2022/09/08 00:35:18;;;;;;;;;;;;;;;16.90;100.00;97983.09;1663160;85;20825;-86
2022/09/08 00:37:53;;;;;;;;;;;;;;;16.80;100.00;97985.00;1666195;85;20234;-87
2022/09/08 00:40:20;;;;;;;;;;;;;;;16.67;100.00;97983.29;1654964;85;24830;-87
2022/09/08 00:42:47;;;;;;;;;;;;;;;16.57;100.00;97982.05;1666452;85;22010;-87
2022/09/08 00:45:19;;;;;;;;;;;;;;;16.56;100.00;97979.55;1654649;85;26110;-87
2022/09/08 00:47:47;;;;;;;;;;;;;;;16.65;100.00;97982.61;1668703;85;24688;-87
2022/09/08 00:50:15;;;;;;;;;;;;;;;16.80;100.00;97973.10;1660771;85;20238;-87
2022/09/08 00:52:46;;;;;;;;;;;;;;;16.95;100.00;97972.05;1654941;85;39018;-87
2022/09/08 00:55:15;;;;;;;;;;;;;;;17.07;100.00;97967.62;1661876;85;21993;-87
2022/09/08 00:57:41;;;;;;;;;;;;;;;17.17;100.00;97964.87;1658787;85;26641;-87
2022/09/08 01:00:09;;;;;;;;;;;;;;;17.18;100.00;97967.85;1655459;84;20239;-87
2022/09/08 01:02:36;;;;;;;;;;;;;;;17.14;100.00;97971.29;1663817;85;20172;-87
2022/09/08 01:05:03;;;;;;;;;;;;;;;17.07;100.00;97973.42;1656461;85;24822;-86
2022/09/08 01:13:07;;;;;;;;;;;;;;;16.83;100.00;97983.38;1678472;84;24568;-87
2022/09/08 01:15:33;;;;;;;;;;;;;;;16.75;100.00;97979.36;1675436;84;20293;-87
2022/09/08 01:18:03;;;;;;;;;;;;;;;16.65;100.00;97974.68;1678524;84;20792;-87
2022/09/08 01:20:33;;;;;;;;;;;;;;;16.57;100.00;97974.62;1688622;84;22253;-87
2022/09/08 01:23:21;;;;;;;;;;;;;;;16.47;100.00;97968.13;1623616;87;21222;-87
2022/09/08 01:26:08;;;;;;;;;;;;;;;16.39;100.00;97965.41;1663897;84;24681;-87
2022/09/08 01:28:38;;;;;;;;;;;;;;;16.33;100.00;97968.17;1684853;84;20218;-86
2022/09/08 01:31:05;;;;;;;;;;;;;;;16.30;100.00;97968.50;1681971;84;24888;-86
2022/09/08 01:33:31;;;;;;;;;;;;;;;16.33;100.00;97971.31;1680279;84;22158;-86
2022/09/08 01:36:04;;;;;;;;;;;;;;;16.36;100.00;97971.50;1688011;84;21591;-86
2022/09/08 01:38:30;;;;;;;;;;;;;;;16.41;100.00;97964.78;1684543;84;24457;-87
2022/09/08 01:40:56;;;;;;;;;;;;;;;16.49;100.00;97969.27;1684312;84;20456;-86
2022/09/08 01:43:31;;;;;;;;;;;;;;;16.53;100.00;97965.35;1679512;84;24722;-86
2022/09/08 01:46:05;;;;;;;;;;;;;;;16.49;100.00;97962.66;1671907;84;22634;-87
2022/09/08 01:48:35;;;;;;;;;;;;;;;16.48;100.00;97965.79;1686067;84;25950;-87
2022/09/08 01:51:07;;;;;;;;;;;;;;;16.56;100.00;97959.74;1680396;84;25107;-86
2022/09/08 01:53:34;;;;;;;;;;;;;;;16.53;100.00;97956.11;1675530;82;20299;-87
2022/09/08 01:56:07;;;;;;;;;;;;;;;16.44;100.00;97952.56;1683932;84;24857;-86
2022/09/08 01:58:33;;;;;;;;;;;;;;;16.36;100.00;97948.56;1676347;84;22158;-87
2022/09/08 02:00:59;;;;;;;;;;;;;;;16.33;100.00;97938.30;1684654;84;26081;-87
2022/09/08 02:03:26;;;;;;;;;;;;;;;16.28;100.00;97932.17;1686757;84;23974;-87
2022/09/08 02:05:57;;;;;;;;;;;;;;;16.35;100.00;97935.51;1666221;84;20174;-87
2022/09/08 02:08:23;;;;;;;;;;;;;;;16.48;100.00;97931.94;1674835;84;24767;-87
2022/09/08 02:10:54;;;;;;;;;;;;;;;16.61;100.00;97927.94;1653928;83;20237;-87
2022/09/08 02:13:22;;;;;;;;;;;;;;;16.75;100.00;97922.54;1673451;84;26057;-87
2022/09/08 02:15:48;;;;;;;;;;;;;;;16.76;100.00;97922.05;1668806;84;24452;-87
2022/09/08 02:18:14;;;;;;;;;;;;;;;16.66;100.00;97919.05;1665446;84;20330;-87
2022/09/08 02:20:42;;;;;;;;;;;;;;;16.54;100.00;97920.27;1666617;84;21150;-87
2022/09/08 02:23:07;;;;;;;;;;;;;;;16.40;100.00;97919.53;1656760;84;22112;-87
2022/09/08 02:25:39;;;;;;;;;;;;;;;16.26;100.00;97916.12;1655568;84;20906;-87
2022/09/08 02:28:12;;;;;;;;;;;;;;;16.18;100.00;97913.45;1655162;84;24688;-87
2022/09/08 02:30:39;;;;;;;;;;;;;;;16.12;100.00;97907.47;1675295;84;20252;-87
2022/09/08 02:33:04;;;;;;;;;;;;;;;16.09;100.00;97907.27;1674119;84;25397;-87
2022/09/08 02:35:30;;;;;;;;;;;;;;;16.08;100.00;97901.67;1666344;84;20369;-87
2022/09/08 02:38:05;;;;;;;;;;;;;;;16.07;100.00;97908.42;1678204;84;26243;-87
2022/09/08 02:40:31;;;;;;;;;;;;;;;16.02;100.00;97911.53;1667199;84;24557;-87
2022/09/08 02:43:00;;;;;;;;;;;;;;;16.01;100.00;97920.91;1671360;84;20553;-87
2022/09/08 02:45:25;;;;;;;;;;;;;;;16.04;100.00;97919.30;1674794;84;24835;-87
2022/09/08 02:47:55;;;;;;;;;;;;;;;16.08;100.00;97920.64;1672823;84;20742;-87
2022/09/08 02:50:21;;;;;;;;;;;;;;;16.06;100.00;97923.42;1681891;84;26246;-87
2022/09/08 02:52:54;;;;;;;;;;;;;;;16.06;100.00;97930.52;1672173;84;20934;-86
2022/09/08 02:55:20;;;;;;;;;;;;;;;16.04;100.00;97929.34;1670582;84;20221;-87
2022/09/08 02:57:46;;;;;;;;;;;;;;;16.00;100.00;97917.92;1675176;84;20251;-87
2022/09/08 03:00:12;;;;;;;;;;;;;;;15.97;100.00;97920.89;1661246;84;22039;-86
2022/09/08 03:02:39;;;;;;;;;;;;;;;15.95;100.00;97918.39;1669665;84;25459;-87
2022/09/08 03:05:05;;;;;;;;;;;;;;;15.89;100.00;97915.88;1678850;84;24597;-87
2022/09/08 03:07:32;;;;;;;;;;;;;;;15.83;100.00;97907.24;1682199;84;20258;-87
2022/09/08 03:09:58;;;;;;;;;;;;;;;15.80;100.00;97906.73;1671176;84;24991;-87
2022/09/08 03:12:26;;;;;;;;;;;;;;;15.80;100.00;97908.88;1667737;83;20371;-87
2022/09/08 03:14:55;;;;;;;;;;;;;;;15.76;100.00;97903.58;1662823;85;26809;-87
2022/09/08 03:17:21;;;;;;;;;;;;;;;15.75;100.00;97897.13;1657076;85;24446;-87
2022/09/08 03:19:48;;;;;;;;;;;;;;;15.75;100.00;97905.05;1657392;85;20566;-87
2022/09/08 03:22:17;;;;;;;;;;;;;;;15.85;100.00;97901.83;1658246;85;25474;-87
2022/09/08 03:24:44;;;;;;;;;;;;;;;15.90;100.00;97894.27;1654497;85;21746;-87
2022/09/08 03:27:10;;;;;;;;;;;;;;;15.82;100.00;97885.79;1665299;85;26012;-87
2022/09/08 03:29:36;;;;;;;;;;;;;;;15.77;100.00;97892.51;1657601;85;24608;-87
2022/09/08 03:32:02;;;;;;;;;;;;;;;15.75;100.00;97895.32;1660230;85;20790;-87
2022/09/08 03:34:28;;;;;;;;;;;;;;;15.88;100.00;97897.55;1655165;85;24819;-87
2022/09/08 03:36:56;;;;;;;;;;;;;;;16.00;100.00;97888.41;1657266;85;20264;-87
2022/09/08 03:39:22;;;;;;;;;;;;;;;16.02;100.00;97890.90;1656697;85;26035;-87
2022/09/08 03:41:55;;;;;;;;;;;;;;;15.95;100.00;97881.94;1655025;85;24723;-87
2022/09/08 03:44:27;;;;;;;;;;;;;;;16.03;100.00;97876.23;1658036;85;20551;-87
2022/09/08 03:46:53;;;;;;;;;;;;;;;16.14;100.00;97883.90;1656848;85;24885;-87
2022/09/08 03:49:19;;;;;;;;;;;;;;;16.21;100.00;97878.31;1663287;85;22082;-87
2022/09/08 03:51:45;;;;;;;;;;;;;;;16.21;100.00;97879.63;1652016;85;21016;-87
2022/09/08 03:57:00;;;;;;;;;;;;;;;16.15;100.00;97873.66;1657912;85;20245;-87
2022/09/08 03:59:32;;;;;;;;;;;;;;;16.01;100.00;97870.27;1664410;85;25556;-87
2022/09/08 04:01:58;;;;;;;;;;;;;;;15.95;100.00;97865.61;1666881;84;22364;-87
2022/09/08 04:04:26;;;;;;;;;;;;;;;16.04;100.00;97875.23;1659365;85;20924;-87
2022/09/08 04:06:55;;;;;;;;;;;;;;;16.14;100.00;97874.66;1650355;85;25312;-87
2022/09/08 04:09:30;;;;;;;;;;;;;;;16.19;100.00;97872.38;1667410;85;20592;-87
2022/09/08 04:11:55;;;;;;;;;;;;;;;16.20;100.00;97858.69;1665004;84;24840;-87
2022/09/08 04:14:25;;;;;;;;;;;;;;;16.03;100.00;97859.08;1662007;84;20394;-87
2022/09/08 04:16:57;;;;;;;;;;;;;;;15.87;100.00;97858.97;1646395;86;26794;-87
2022/09/08 04:19:25;;;;;;;;;;;;;;;15.84;100.00;97869.81;1654135;86;24531;-87
2022/09/08 04:21:50;;;;;;;;;;;;;;;15.89;100.00;97868.38;1667160;84;20523;-87
2022/09/08 04:24:22;;;;;;;;;;;;;;;15.92;100.00;97867.73;1666519;84;20249;-87
2022/09/08 04:26:50;;;;;;;;;;;;;;;15.84;100.00;97867.17;1671707;84;22094;-87
2022/09/08 04:29:17;;;;;;;;;;;;;;;15.83;100.00;97870.80;1667001;84;26133;-87
2022/09/08 04:31:49;;;;;;;;;;;;;;;15.82;100.00;97868.64;1668237;84;24424;-87
2022/09/08 04:34:16;;;;;;;;;;;;;;;15.83;100.00;97866.83;1670267;84;20275;-87
2022/09/08 04:36:42;;;;;;;;;;;;;;;15.82;100.00;97862.53;1660760;84;24842;-87
2022/09/08 04:39:10;;;;;;;;;;;;;;;15.75;100.00;97866.79;1670515;84;22029;-87
2022/09/08 04:41:37;;;;;;;;;;;;;;;15.67;100.00;97868.86;1671567;84;26040;-87
2022/09/08 04:44:03;;;;;;;;;;;;;;;15.66;100.00;97871.16;1667490;84;24439;-87
2022/09/08 04:46:33;;;;;;;;;;;;;;;15.63;100.00;97869.32;1670009;84;20178;-86
2022/09/08 04:49:00;;;;;;;;;;;;;;;15.70;100.00;97868.57;1672942;84;24853;-87
2022/09/08 04:51:27;;;;;;;;;;;;;;;15.74;100.00;97862.00;1666750;84;22098;-87
2022/09/08 04:53:53;;;;;;;;;;;;;;;15.82;100.00;97865.17;1667008;84;26239;-87
2022/09/08 04:56:25;;;;;;;;;;;;;;;15.94;100.00;97863.11;1671308;85;20915;-87
2022/09/08 04:58:53;;;;;;;;;;;;;;;16.09;100.00;97860.27;1667160;84;20507;-87
2022/09/08 05:01:20;;;;;;;;;;;;;;;16.16;100.00;97859.47;1646751;86;24825;-87
2022/09/08 05:03:49;;;;;;;;;;;;;;;16.09;100.00;97864.23;1659567;84;21968;-87
2022/09/08 05:06:21;;;;;;;;;;;;;;;15.98;100.00;97862.67;1663490;84;26087;-87
2022/09/08 05:08:48;;;;;;;;;;;;;;;15.96;100.00;97863.31;1668633;84;24486;-87
2022/09/08 05:11:14;;;;;;;;;;;;;;;16.01;100.00;97867.63;1661837;84;20254;-87
2022/09/08 05:13:41;;;;;;;;;;;;;;;15.98;100.00;97863.16;1670886;84;24763;-87
2022/09/08 05:16:09;;;;;;;;;;;;;;;15.94;100.00;97863.95;1667840;85;22237;-87
2022/09/08 05:18:35;;;;;;;;;;;;;;;15.89;100.00;97853.86;1632126;85;26159;-87
2022/09/08 05:21:02;;;;;;;;;;;;;;;15.90;100.00;97856.84;1650646;85;24527;-87
2022/09/08 05:23:30;;;;;;;;;;;;;;;15.96;100.00;97858.03;1658705;85;20324;-87
2022/09/08 05:26:07;;;;;;;;;;;;;;;16.00;100.00;97859.37;1655210;85;25222;-87
2022/09/08 05:28:35;;;;;;;;;;;;;;;16.02;100.00;97853.45;1670187;85;21926;-87
2022/09/08 05:31:01;;;;;;;;;;;;;;;16.05;100.00;97853.63;1668309;85;25965;-87
2022/09/08 05:33:27;;;;;;;;;;;;;;;16.14;100.00;97846.11;1669031;85;24455;-87
2022/09/08 05:35:53;;;;;;;;;;;;;;;16.19;100.00;97852.58;1668668;85;20756;-87
2022/09/08 05:38:23;;;;;;;;;;;;;;;16.24;100.00;97848.97;1671048;85;20908;-87
2022/09/08 05:40:51;;;;;;;;;;;;;;;16.30;100.00;97845.70;1622709;85;21974;-87
2022/09/08 05:43:17;;;;;;;;;;;;;;;16.49;100.00;97846.44;1658122;85;26182;-87
2022/09/08 05:45:47;;;;;;;;;;;;;;;16.67;100.00;97847.22;1658140;85;25184;-87
2022/09/08 05:48:13;;;;;;;;;;;;;;;16.80;100.00;97848.89;1639684;86;20219;-87
2022/09/08 05:50:45;;;;;;;;;;;;;;;16.92;100.00;97848.11;1668561;84;25603;-87
2022/09/08 05:53:18;;;;;;;;;;;;;;;16.88;100.00;97847.61;1681762;84;21756;-87
2022/09/08 05:55:45;;;;;;;;;;;;;;;16.83;100.00;97843.80;1682847;84;25981;-87
2022/09/08 05:58:11;;;;;;;;;;;;;;;16.84;100.00;97847.61;1681211;83;24435;-87
2022/09/08 06:00:37;;;;;;;;;;;;;;;16.83;100.00;97853.88;1683005;84;20598;-87
2022/09/08 06:03:04;;;;;;;;;;;;;;;16.84;100.00;97854.22;1682465;83;24771;-87
2022/09/08 06:05:30;;;;;;;;;;;;;;;16.92;100.00;97852.07;1682783;83;22230;-87
2022/09/08 06:07:55;;;;;;;;;;;;;;;16.94;100.00;97850.94;1682685;84;20899;-87
2022/09/08 06:10:24;;;;;;;;;;;;;;;16.96;100.00;97851.61;1682338;83;20849;-87
2022/09/08 06:12:51;;;;;;;;;;;;;;;16.99;100.00;97853.09;1677327;84;20245;-87
2022/09/08 06:15:24;;;;;;;;;;;;;;;17.00;100.00;97849.47;1652992;85;25361;-87
2022/09/08 06:17:50;;;;;;;;;;;;;;;17.08;100.00;97845.02;1653700;85;22138;-87
2022/09/08 06:20:16;;;;;;;;;;;;;;;17.14;100.00;97836.43;1652456;85;21014;-87
2022/09/08 06:22:42;;;;;;;;;;;;;;;17.19;100.00;97841.23;1644676;85;24448;-87
2022/09/08 06:25:09;;;;;;;;;;;;;;;17.24;100.00;97840.77;1655030;86;20883;-87
2022/09/08 06:27:43;;;;;;;;;;;;;;;17.30;100.00;97841.41;1644837;85;24866;-87
2022/09/08 06:30:14;;;;;;;;;;;;;;;17.35;100.00;97830.67;1657293;85;22834;-87
2022/09/08 06:32:51;;;;;;;;;;;;;;;17.42;100.00;97830.35;1656219;85;26035;-87
2022/09/08 06:35:22;;;;;;;;;;;;;;;17.49;100.00;97833.17;1654875;85;24712;-87
2022/09/08 06:38:02;;;;;;;;;;;;;;;17.57;100.00;97828.69;1649886;85;20256;-87
2022/09/08 06:40:32;;;;;;;;;;;;;;;17.65;100.00;97827.08;1660717;85;24780;-88
2022/09/08 06:43:00;;;;;;;;;;;;;;;17.73;100.00;97829.21;1643184;86;22065;-88
2022/09/08 06:45:28;;;;;;;;;;;;;;;17.82;100.00;97820.78;1661167;85;26019;-88
2022/09/08 06:48:03;;;;;;;;;;;;;;;17.89;100.00;97815.16;1666140;85;24474;-88
2022/09/08 06:50:34;;;;;;;;;;;;;;;17.97;100.00;97812.48;1658346;85;20229;-87
2022/09/08 06:53:02;;;;;;;;;;;;;;;18.07;100.00;97809.14;1664227;85;24833;-87
2022/09/08 06:55:44;;;;;;;;;;;;;;;18.16;100.00;97803.34;1662489;85;22755;-88
2022/09/08 06:58:15;;;;;;;;;;;;;;;18.24;100.00;97801.98;1663682;85;26049;-88
2022/09/08 07:00:46;;;;;;;;;;;;;;;18.33;100.00;97792.50;1663196;85;24544;-88
2022/09/08 07:03:26;;;;;;;;;;;;;;;18.43;100.00;97788.34;1662523;85;20209;-87
2022/09/08 07:05:58;;;;;;;;;;;;;;;18.51;100.00;97786.97;1655602;85;25461;-88
2022/09/08 07:08:35;;;;;;;;;;;;;;;18.63;100.00;97790.92;1666882;85;22234;-88
2022/09/08 07:11:06;;;;;;;;;;;;;;;18.70;100.00;97785.27;1660969;85;26248;-89
2022/09/08 07:13:33;;;;;;;;;;;;;;;18.79;100.00;97788.69;1666405;83;24583;-88
2022/09/08 07:16:20;;;;;;;;;;;;;;;18.88;100.00;97785.47;1658622;85;20304;-87
2022/09/08 07:18:48;;;;;;;;;;;;;;;18.97;100.00;97788.42;1655681;85;25461;-88
2022/09/08 07:21:33;;;;;;;;;;;;;;;19.05;100.00;97792.33;1663692;85;22230;-87
2022/09/08 07:24:01;;;;;;;;;;;;;;;19.13;100.00;97790.97;1664155;85;26005;-88
2022/09/08 07:26:32;;;;;;;;;;;;;;;19.23;100.00;97787.08;1655939;85;25269;-88
2022/09/08 07:29:06;;;;;;;;;;;;;;;19.29;100.00;97782.06;1658095;85;20353;-88
2022/09/08 07:31:37;;;;;;;;;;;;;;;19.36;100.00;97777.20;1663478;85;25482;-88
2022/09/08 07:34:09;;;;;;;;;;;;;;;19.43;100.00;97771.98;1656605;85;22004;-88
2022/09/08 07:36:37;;;;;;;;;;;;;;;19.48;100.00;97770.47;1656482;85;26150;-88
2022/09/08 07:39:21;;;;;;;;;;;;;;;19.53;100.00;97768.09;1660255;85;24449;-88
2022/09/08 07:41:54;;;;;;;;;;;;;;;19.59;100.00;97775.34;1670401;85;20233;-87
2022/09/08 07:44:34;;;;;;;;;;;;;;;19.67;100.00;97769.66;1668516;85;26985;-87
2022/09/08 07:47:17;;;;;;;;;;;;;;;19.75;100.00;97770.39;1662607;85;21958;-88
2022/09/08 07:49:47;;;;;;;;;;;;;;;19.87;100.00;97770.77;1663010;85;25999;-87
2022/09/08 07:52:15;;;;;;;;;;;;;;;19.98;100.00;97764.51;1668598;85;24379;-88
2022/09/08 07:54:43;;;;;;;;;;;;;;;20.07;100.00;97763.11;1662081;85;20261;-88
2022/09/08 07:57:14;;;;;;;;;;;;;;;20.14;100.00;97760.84;1654474;85;24775;-87
2022/09/08 07:59:42;;;;;;;;;;;;;;;20.22;100.00;97760.77;1661818;85;22415;-87
2022/09/08 08:02:28;;;;;;;;;;;;;;;20.27;100.00;97757.05;1662857;85;25980;-87
2022/09/08 08:05:14;;;;;;;;;;;;;;;20.33;100.00;97761.66;1662743;85;25295;-87
2022/09/08 08:07:41;;;;;;;;;;;;;;;20.39;100.00;97764.91;1657319;85;20294;-87
2022/09/08 08:10:12;;;;;;;;;;;;;;;20.50;100.00;97767.59;1655723;85;24748;-88
2022/09/08 08:12:46;;;;;;;;;;;;;;;20.60;100.00;97764.64;1669401;85;21974;-87
2022/09/08 08:15:13;;;;;;;;;;;;;;;20.77;100.00;97768.73;1682814;84;26050;-87
2022/09/08 08:17:42;;;;;;;;;;;;;;;20.82;100.00;97749.05;1685421;84;24650;-87
2022/09/08 08:20:29;;;;;;;;;;;;;;;20.87;100.00;97754.62;1679538;84;20269;-87
2022/09/08 08:23:09;;;;;;;;;;;;;;;20.95;100.00;97749.16;1682604;83;25196;-87
2022/09/08 08:25:55;;;;;;;;;;;;;;;21.07;100.00;97751.64;1677131;83;22918;-87
2022/09/08 08:28:22;;;;;;;;;;;;;;;21.16;100.00;97751.06;1674538;83;26248;-88
2022/09/08 08:30:49;;;;;;;;;;;;;;;21.28;100.00;97754.84;1684544;84;24531;-87
2022/09/08 08:33:23;;;;;;;;;;;;;;;21.36;100.00;97751.23;1676965;83;20212;-87
2022/09/08 08:35:54;;;;;;;;;;;;;;;21.44;100.00;97751.11;1682925;83;24863;-87
2022/09/08 08:38:22;;;;;;;;;;;;;;;21.52;100.00;97745.13;1684609;84;22000;-87
2022/09/08 08:40:56;;;;;;;;;;;;;;;21.64;100.00;97752.08;1684560;84;25950;-87
2022/09/08 08:43:36;;;;;;;;;;;;;;;21.73;100.00;97749.58;1672660;83;25217;-88
2022/09/08 08:46:04;;;;;;;;;;;;;;;21.85;100.00;97749.87;1675960;84;20160;-87
2022/09/08 08:48:51;;;;;;;;;;;;;;;21.96;100.00;97748.85;1685634;83;24820;-87
2022/09/08 08:51:36;;;;;;;;;;;;;;;22.06;100.00;97742.66;1683230;83;22311;-87
2022/09/08 08:54:16;;;;;;;;;;;;;;;22.18;100.00;97740.27;1682435;84;26008;-87
2022/09/08 08:57:03;;;;;;;;;;;;;;;22.26;100.00;97740.08;1633918;86;24421;-87
2022/09/08 08:59:40;;;;;;;;;;;;;;;22.34;100.00;97738.60;1637165;84;20255;-87
2022/09/08 09:02:17;;;;;;;;;;;;;;;22.40;100.00;97737.81;1686288;84;25496;-87
2022/09/08 09:04:48;;;;;;;;;;;;;;;22.47;100.00;97733.84;1682680;83;22071;-87
2022/09/08 09:07:37;;;;;;;;;;;;;;;22.51;100.00;97728.41;1688261;83;26863;-87
2022/09/08 09:10:22;;;;;;;;;;;;;;;22.57;100.00;97726.80;1675593;84;24479;-87
2022/09/08 09:13:06;;;;;;;;;;;;;;;22.61;100.00;97723.52;1684764;83;20251;-87
2022/09/08 09:15:42;;;;;;;;;;;;;;;22.70;100.00;97732.98;1661805;85;25503;-87
2022/09/08 09:18:20;;;;;;;;;;;;;;;22.79;100.00;97731.83;1647925;86;21989;-87
2022/09/08 09:21:00;;;;;;;;;;;;;;;22.86;100.00;97723.30;1653361;86;26038;-87
2022/09/08 09:23:44;;;;;;;;;;;;;;;22.93;100.00;97724.15;1615501;87;24402;-87
2022/09/08 09:26:27;;;;;;;;;;;;;;;23.01;100.00;97728.99;1658595;85;20229;-87
2022/09/08 09:28:56;;;;;;;;;;;;;;;23.16;100.00;97722.95;1651567;86;25727;-87
2022/09/08 09:31:41;;;;;;;;;;;;;;;23.25;100.00;97721.72;1654090;85;22150;-87
2022/09/08 09:34:10;;;;;;;;;;;;;;;23.33;100.00;97718.86;1654393;86;26857;-87
2022/09/08 09:36:49;;;;;;;;;;;;;;;23.42;100.00;97724.30;1654211;85;24433;-87
2022/09/08 09:39:20;;;;;;;;;;;;;;;23.49;100.00;97718.48;1653362;85;20497;-87
2022/09/08 09:41:51;;;;;;;;;;;;;;;23.62;100.00;97719.78;1653617;85;24918;-87
2022/09/08 09:44:33;;;;;;;;;;;;;;;23.74;100.00;97707.96;1653893;85;22063;-87
2022/09/08 09:47:01;;;;;;;;;;;;;;;23.88;100.00;97714.94;1654282;85;26067;-87
2022/09/08 09:49:47;;;;;;;;;;;;;;;24.01;100.00;97713.55;1649686;85;25337;-87
2022/09/08 09:52:15;;;;;;;;;;;;;;;24.09;100.00;97703.98;1654177;86;20243;-88
2022/09/08 09:54:52;;;;;;;;;;;;;;;24.19;100.00;97702.23;1654008;85;25631;-87
2022/09/08 09:57:36;;;;;;;;;;;;;;;24.29;100.00;97703.94;1654315;85;22033;-88
2022/09/08 10:00:13;;;;;;;;;;;;;;;24.44;100.00;97693.78;1654242;85;26015;-87
2022/09/08 10:02:50;;;;;;;;;;;;;;;24.55;100.00;97690.95;1639096;86;24444;-87
2022/09/08 10:05:33;;;;;;;;;;;;;;;24.60;100.00;97693.30;1659713;86;20199;-88
2022/09/08 10:08:01;;;;;;;;;;;;;;;24.67;100.00;97679.88;1653346;85;25022;-88
2022/09/08 10:10:45;;;;;;;;;;;;;;;24.70;100.00;97683.48;1656327;86;21977;-87
2022/09/08 10:13:31;;;;;;;;;;;;;;;24.76;100.00;97676.45;1652682;86;25996;-87
2022/09/08 10:16:16;;;;;;;;;;;;;;;24.83;100.00;97678.55;1635101;86;24602;-88
2022/09/08 10:19:02;;;;;;;;;;;;;;;24.89;100.00;97679.06;1684206;84;20168;-87
2022/09/08 10:21:49;;;;;;;;;;;;;;;25.03;100.00;97666.42;1681130;83;24763;-87
2022/09/08 10:24:26;;;;;;;;;;;;;;;25.19;100.00;97665.36;1685807;83;22070;-88
2022/09/08 10:26:53;;;;;;;;;;;;;;;25.38;100.00;97668.89;1688968;83;26054;-88
2022/09/08 10:29:30;;;;;;;;;;;;;;;25.61;100.00;97664.29;1675181;84;24532;-88
2022/09/08 10:32:00;;;;;;;;;;;;;;;25.74;100.00;97666.33;1681277;84;20234;-87
2022/09/08 10:34:46;;;;;;;;;;;;;;;25.85;100.00;97670.66;1674503;83;25654;-88
2022/09/08 10:37:17;;;;;;;;;;;;;;;25.94;100.00;97667.45;1679571;83;21991;-88
2022/09/08 10:39:56;;;;;;;;;;;;;;;26.04;100.00;97658.36;1687968;83;26910;-88
2022/09/08 10:42:44;;;;;;;;;;;;;;;26.07;100.00;97657.92;1662327;84;20936;-88
2022/09/08 10:45:21;;;;;;;;;;;;;;;26.07;100.00;97666.49;1687363;83;20462;-87
2022/09/08 10:47:49;;;;;;;;;;;;;;;25.92;100.00;97655.30;1682252;83;24844;-88
2022/09/08 10:50:19;;;;;;;;;;;;;;;25.87;100.00;97663.19;1688462;83;22041;-87
2022/09/08 10:52:51;;;;;;;;;;;;;;;25.86;100.00;97660.23;1682701;83;26195;-88
2022/09/08 10:55:19;;;;;;;;;;;;;;;25.85;100.00;97656.73;1684537;83;24502;-87
2022/09/08 10:57:49;;;;;;;;;;;;;;;25.80;100.00;97653.90;1687894;83;20299;-88
2022/09/08 11:00:18;;;;;;;;;;;;;;;25.74;100.00;97654.78;1687432;83;24721;-87
2022/09/08 11:03:00;;;;;;;;;;;;;;;25.70;100.00;97653.57;1687724;83;22857;-88
2022/09/08 11:05:46;;;;;;;;;;;;;;;25.70;100.00;97658.93;1687782;83;26241;-88
2022/09/08 11:08:20;;;;;;;;;;;;;;;25.76;100.00;97656.19;1681496;83;24405;-87
2022/09/08 11:10:52;;;;;;;;;;;;;;;25.78;100.00;97651.95;1681214;84;20224;-87
2022/09/08 11:13:20;;;;;;;;;;;;;;;25.75;100.00;97657.22;1684993;83;24832;-88
2022/09/08 11:15:48;;;;;;;;;;;;;;;25.77;100.00;97658.35;1687018;83;22728;-88
2022/09/08 11:18:22;;;;;;;;;;;;;;;25.79;100.00;97653.59;1687028;83;26809;-87
2022/09/08 11:20:52;;;;;;;;;;;;;;;25.83;100.00;97658.28;1686255;83;24323;-87
2022/09/08 11:23:36;;;;;;;;;;;;;;;25.86;100.00;97657.00;1686975;83;20573;-88
2022/09/08 11:26:07;;;;;;;;;;;;;;;25.85;100.00;97658.08;1680370;83;24986;-87
2022/09/08 11:28:37;;;;;;;;;;;;;;;25.83;100.00;97650.24;1687155;83;22074;-88
2022/09/08 11:31:14;;;;;;;;;;;;;;;25.82;100.00;97640.55;1685834;83;26648;-88
2022/09/08 11:33:51;;;;;;;;;;;;;;;25.91;100.00;97638.94;1684087;84;24437;-87
2022/09/08 11:36:22;;;;;;;;;;;;;;;26.07;100.00;97638.33;1687271;83;20234;-87
2022/09/08 11:39:07;;;;;;;;;;;;;;;26.18;100.00;97635.68;1687008;83;24696;-87
2022/09/08 11:41:40;;;;;;;;;;;;;;;26.35;100.00;97627.08;1685675;83;22100;-87
2022/09/08 11:44:14;;;;;;;;;;;;;;;26.56;100.00;97625.23;1684796;83;25982;-87
2022/09/08 11:46:42;;;;;;;;;;;;;;;26.77;100.00;97624.70;1684172;84;24455;-87
2022/09/08 11:49:22;;;;;;;;;;;;;;;26.84;100.00;97617.34;1662810;84;20200;-88
2022/09/08 11:52:05;;;;;;;;;;;;;;;26.90;100.00;97622.35;1686620;83;24926;-87
2022/09/08 11:54:42;;;;;;;;;;;;;;;27.00;100.00;97622.63;1687375;83;21999;-88
2022/09/08 11:57:27;;;;;;;;;;;;;;;27.09;100.00;97617.72;1687268;83;25958;-87
2022/09/08 11:59:59;;;;;;;;;;;;;;;27.17;100.00;97616.02;1687262;83;25426;-87
2022/09/08 12:02:30;;;;;;;;;;;;;;;27.12;100.00;97611.88;1686795;83;20612;-87
2022/09/08 12:07:54;;;;;;;;;;;;;;;27.13;100.00;97598.73;1686417;83;21937;-88
2022/09/08 12:10:33;;;;;;;;;;;;;;;27.20;100.00;97600.27;1685701;83;26739;-87
2022/09/08 12:13:13;;;;;;;;;;;;;;;27.22;100.00;97594.13;1684654;83;76498;-88
2022/09/08 12:15:58;;;;;;;;;;;;;;;27.21;100.00;97602.44;1669473;83;43334;-88
2022/09/08 12:18:27;;;;;;;;;;;;;;;27.15;100.00;97602.02;1657482;85;24973;-87
2022/09/08 12:20:57;;;;;;;;;;;;;;;27.12;100.00;97604.64;1657736;85;22068;-87
2022/09/08 12:23:32;;;;;;;;;;;;;;;27.16;100.00;97605.01;1640666;86;26046;-88
2022/09/08 12:26:19;;;;;;;;;;;;;;;27.20;100.00;97600.27;1653823;86;25255;-87
2022/09/08 12:28:47;;;;;;;;;;;;;;;27.13;100.00;97604.94;1654670;85;20261;-87
2022/09/08 12:31:30;;;;;;;;;;;;;;;27.01;100.00;97604.09;1649151;85;24708;-88
2022/09/08 12:34:07;;;;;;;;;;;;;;;26.94;100.00;97601.55;1658083;85;21960;-88
2022/09/08 12:36:38;;;;;;;;;;;;;;;27.00;100.00;97593.09;1662347;85;26713;-87
2022/09/08 12:39:24;;;;;;;;;;;;;;;27.01;100.00;97592.02;1651082;86;24546;-88
2022/09/08 12:42:03;;;;;;;;;;;;;;;26.96;100.00;97581.97;1660147;86;20248;-87
2022/09/08 12:44:51;;;;;;;;;;;;;;;26.96;100.00;97577.94;1657140;85;24964;-87
2022/09/08 12:47:27;;;;;;;;;;;;;;;27.00;100.00;97579.10;1656565;86;21833;-87
2022/09/08 12:49:55;;;;;;;;;;;;;;;26.98;100.00;97567.80;1652162;86;26087;-87
2022/09/08 12:52:23;;;;;;;;;;;;;;;27.05;100.00;97555.08;1652638;85;24473;-88
2022/09/08 12:54:54;;;;;;;;;;;;;;;27.09;100.00;97549.23;1657289;85;20276;-87
2022/09/08 12:57:38;;;;;;;;;;;;;;;27.16;100.00;97556.13;1658102;85;24821;-88
2022/09/08 13:00:07;;;;;;;;;;;;;;;27.19;100.00;97552.96;1659487;85;22048;-87
2022/09/08 13:02:35;;;;;;;;;;;;;;;27.33;100.00;97558.93;1658926;85;26057;-87
2022/09/08 13:05:05;;;;;;;;;;;;;;;27.39;100.00;97551.24;1654322;85;24617;-88
2022/09/08 13:07:54;;;;;;;;;;;;;;;27.41;100.00;97547.80;1659784;85;20523;-87
2022/09/08 13:10:25;;;;;;;;;;;;;;;27.40;100.00;97540.79;1645120;85;24863;-87